Breckenridge, CO

8:09 AM MST on November 26, 2014 (GMT -0700)
Copper Mountain | Change Station
CLOSE
Current Station
Airport
Location: Copper Mountain,
Elevation: 12073 ft
Nearby Weather Stations

Elev 12073 ft 39.48 °N, 106.15 °W | Updated 14 minutes ago

Overcast
Overcast
25 °F
Feels Like 5 °F
N
44
Wind Variable Wind from West
Gusts 54 mph

Today
High -- | Low -- °F
--% Chance of Precip.
Yesterday
High -- | Low -- °F
Precip. -- in
7:00 AM 4:42 PM
Waxing Crescent, 20% visible
Pressure 30.27 in
Visibility -9999.0 miles
Clouds Scattered Clouds 400 ft
Scattered Clouds 800 ft
Overcast 1600 ft
Windchill 5 °F
Dew Point 19 °F
Humidity 80%
Rainfall 0.00 in
Snow Depth Not available.
UV 0 out of 12
Pollen .10 out of 12
Air Quality Not available.
Flu Activity Not available.
METAR KCCU 261455Z AUTO 27038G47KT SCT004 SCT008 OVC016 M04/M07 A3027 RMK AO2 PWINO

More Conditions Fewer Conditions

Pressure 30.27 in
Visibility -9999.0 miles
Clouds Scattered Clouds 400 ft
Scattered Clouds 800 ft
Overcast 1600 ft
Windchill 5 °F
Dew Point 19 °F
Humidity 80%
Rainfall 0.00 in
Snow Depth Not available.
UV 0 out of 12
Pollen .10 out of 12
Air Quality Not available.
Flu Activity Not available.
METAR KCCU 261455Z AUTO 27038G47KT SCT004 SCT008 OVC016 M04/M07 A3027 RMK AO2 PWINO

More Conditions Fewer Conditions

10-Day Weather Forecast

Almanac

Astronomy

Nov. 26, 2014 Rise Set
Actual Time
Civil Twilight
Nautical Twilight
Astronomical Twilight
Moon
Length of Visible Light
Length of Day
Tomorrow will be .
, % of the Moon is Illuminated

Today's Extremes

State Highs State Lows

Community

WunderPhotos

Upload Photos

1,773,769 photos uploaded!

WunderBlogs® & News

Nearby

Air Quality

  Air Quality AQ Index Pollutant
Not available.

Snow Depth

Station Depth Elevation

Earthquake Activity

City Distance Mag. Time & Date
Minimum magnitude displayed is 2.5.

Coastal Water Temperatures

Place Temperature

Nearby Weather Stations